Time;durP1;ratioP1;P1;durP2;ratioP2;P2;SDS_P1;SDS_P2;PMS_P1;PMS_P2;Temp;Humidity;BMP_temperature;BMP_pressure;BME280_temperature;BME280_humidity;BME280_pressure;Samples;Min_cycle;Max_cycle;Signal;HPM_P1;HPM_P2
2024/01/09 00:00:24;;;;;;;10.63;6.23;;;;;;;-5.84;73.62;102954.13;5053738;28;20259;-72
2024/01/09 00:02:52;;;;;;;10.33;6.63;;;;;;;-5.89;73.10;102953.28;5053583;28;20321;-72
2024/01/09 00:05:21;;;;;;;11.13;6.63;;;;;;;-5.91;73.56;102955.03;5053981;28;20210;-72
2024/01/09 00:07:50;;;;;;;11.40;6.97;;;;;;;-5.87;72.02;102951.56;5053627;28;20210;-72
2024/01/09 00:10:18;;;;;;;11.40;6.37;;;;;;;-5.84;74.13;102951.53;5053813;28;20241;-72
2024/01/09 00:12:47;;;;;;;11.00;6.30;;;;;;;-5.74;73.40;102953.25;5053164;28;20222;-72
2024/01/09 00:15:16;;;;;;;11.07;6.80;;;;;;;-5.74;72.47;102940.19;5053509;28;20213;-72
2024/01/09 00:17:45;;;;;;;12.23;6.80;;;;;;;-5.68;73.52;102948.00;5053483;28;20201;-72
2024/01/09 00:20:14;;;;;;;9.20;6.33;;;;;;;-5.70;73.71;102944.53;5053727;28;20237;-72
2024/01/09 00:22:43;;;;;;;9.63;6.20;;;;;;;-5.67;71.85;102943.66;5053277;28;20233;-72
2024/01/09 00:25:11;;;;;;;11.10;7.03;;;;;;;-5.74;72.96;102944.53;5053093;28;20653;-72
2024/01/09 00:27:40;;;;;;;11.50;6.70;;;;;;;-5.69;73.80;102945.41;5053429;28;20288;-72
2024/01/09 00:30:09;;;;;;;10.70;6.50;;;;;;;-5.81;72.60;102941.06;5053369;28;20233;-72
2024/01/09 00:32:38;;;;;;;10.10;6.67;;;;;;;-5.93;73.19;102935.94;5053303;28;20662;-72
2024/01/09 00:35:09;;;;;;;12.07;6.80;;;;;;;-6.05;74.22;102940.28;5053084;28;20602;-72
2024/01/09 00:37:37;;;;;;;9.03;6.27;;;;;;;-5.96;74.25;102935.94;5053292;28;20233;-72
2024/01/09 00:40:08;;;;;;;10.13;6.47;;;;;;;-5.90;72.96;102938.53;5053299;28;20205;-72
2024/01/09 00:42:36;;;;;;;12.27;7.57;;;;;;;-5.93;73.44;102943.75;5053113;28;20288;-72
2024/01/09 00:45:07;;;;;;;11.10;7.30;;;;;;;-5.93;73.57;102929.84;5052940;28;20297;-72
2024/01/09 00:47:35;;;;;;;13.40;7.00;;;;;;;-5.87;74.51;102938.53;5053453;28;20194;-72
2024/01/09 00:50:04;;;;;;;11.10;6.57;;;;;;;-5.87;73.09;102941.13;5052880;28;20209;-72
2024/01/09 00:52:34;;;;;;;10.90;6.57;;;;;;;-5.88;73.73;102936.78;5056014;28;20700;-72
2024/01/09 00:55:02;;;;;;;14.47;7.40;;;;;;;-5.89;73.21;102942.84;5057154;28;20289;-72
2024/01/09 00:57:31;;;;;;;10.80;6.67;;;;;;;-6.00;73.55;102948.97;5057121;28;20206;-72
2024/01/09 00:59:59;;;;;;;12.87;7.03;;;;;;;-5.92;73.90;102948.06;5057076;28;20234;-72
2024/01/09 01:02:28;;;;;;;10.90;6.90;;;;;;;-5.92;74.00;102945.47;5057175;28;20264;-72
2024/01/09 01:04:57;;;;;;;10.33;6.60;;;;;;;-6.06;72.43;102939.41;5057000;28;20213;-72
2024/01/09 01:07:25;;;;;;;10.70;6.43;;;;;;;-6.10;73.82;102936.81;5056949;28;20202;-72
2024/01/09 01:09:55;;;;;;;11.17;7.40;;;;;;;-6.03;75.04;102943.78;5057118;28;20289;-72
2024/01/09 01:12:23;;;;;;;10.73;7.07;;;;;;;-6.05;73.12;102940.28;5057109;28;20312;-72
2024/01/09 01:14:52;;;;;;;10.63;7.20;;;;;;;-6.14;73.53;102941.16;5056791;28;20209;-72
2024/01/09 01:17:20;;;;;;;11.13;7.00;;;;;;;-6.16;73.37;102943.75;5056833;28;20264;-72
2024/01/09 01:19:49;;;;;;;11.90;7.20;;;;;;;-6.12;74.06;102944.63;5056736;28;20206;-72
2024/01/09 01:22:18;;;;;;;9.50;6.37;;;;;;;-6.07;75.27;102947.25;5056567;28;20237;-72
2024/01/09 01:24:46;;;;;;;12.17;6.90;;;;;;;-6.11;73.60;102945.50;5056635;28;20248;-72
2024/01/09 01:27:16;;;;;;;11.70;7.40;;;;;;;-6.11;73.54;102954.19;5056842;28;20246;-72
2024/01/09 01:29:44;;;;;;;13.20;6.77;;;;;;;-6.13;72.93;102958.56;5056563;28;20213;-72
2024/01/09 01:32:13;;;;;;;13.00;7.17;;;;;;;-6.11;73.13;102962.03;5056499;28;20662;-72
2024/01/09 01:34:42;;;;;;;11.27;6.83;;;;;;;-6.17;74.61;102967.25;5056252;28;20214;-72
2024/01/09 01:37:10;;;;;;;9.20;6.37;;;;;;;-6.24;74.40;102965.50;5056321;28;20679;-72
2024/01/09 01:39:39;;;;;;;10.93;6.83;;;;;;;-6.31;73.95;102971.59;5056347;28;20229;-72
2024/01/09 01:42:07;;;;;;;12.60;7.53;;;;;;;-6.29;73.78;102969.84;5056158;28;20238;-72
2024/01/09 01:44:37;;;;;;;13.97;7.33;;;;;;;-6.50;73.95;102968.06;5056285;28;20289;-72
2024/01/09 01:47:07;;;;;;;11.40;6.60;;;;;;;-6.46;75.52;102963.75;5056272;28;20694;-72
2024/01/09 01:49:35;;;;;;;11.33;6.70;;;;;;;-6.46;75.36;102975.03;5055870;28;20217;-72
2024/01/09 01:52:04;;;;;;;11.90;7.40;;;;;;;-6.40;76.65;102966.34;5056296;28;20309;-72
2024/01/09 01:54:35;;;;;;;11.40;6.80;;;;;;;-6.44;76.74;102977.66;5056087;28;20218;-72
2024/01/09 01:57:06;;;;;;;14.27;7.13;;;;;;;-6.41;75.22;102977.66;5056277;28;20292;-72
2024/01/09 01:59:39;;;;;;;13.43;6.97;;;;;;;-6.44;77.08;102967.22;5056054;28;20195;-72
2024/01/09 02:02:08;;;;;;;11.70;7.10;;;;;;;-6.54;75.87;102965.50;5055407;28;20272;-72
2024/01/09 02:04:39;;;;;;;10.00;6.70;;;;;;;-6.58;75.45;102971.56;5055872;28;20206;-72
2024/01/09 02:07:07;;;;;;;13.90;6.93;;;;;;;-6.64;76.48;102963.75;5055610;28;20664;-72
2024/01/09 02:09:37;;;;;;;10.90;6.93;;;;;;;-6.58;76.09;102966.34;5055474;28;20202;-72
2024/01/09 02:12:06;;;;;;;10.20;6.77;;;;;;;-6.60;76.13;102966.34;5055697;28;20222;-72
2024/01/09 02:14:35;;;;;;;11.33;6.60;;;;;;;-6.63;75.80;102970.66;5055397;28;20660;-72
2024/01/09 02:17:06;;;;;;;10.53;6.53;;;;;;;-6.63;77.28;102965.47;5055330;28;20599;-72
2024/01/09 02:19:35;;;;;;;9.37;6.30;;;;;;;-6.54;75.68;102970.69;5055272;28;20207;-72
2024/01/09 02:22:03;;;;;;;11.70;6.60;;;;;;;-6.53;76.32;102970.69;5055440;28;20253;-72
2024/01/09 02:24:32;;;;;;;13.20;6.57;;;;;;;-6.57;74.61;102971.53;5056330;28;20256;-72
2024/01/09 02:27:13;;;;;;;10.37;6.13;;;;;;;-6.58;75.21;102966.34;5055466;28;20582;-72
2024/01/09 02:29:49;;;;;;;10.43;6.03;;;;;;;-6.53;76.25;102968.06;5055433;28;20284;-72
2024/01/09 02:32:20;;;;;;;10.87;6.67;;;;;;;-6.59;75.83;102962.88;5055331;28;20232;-72
2024/01/09 02:34:51;;;;;;;9.50;5.90;;;;;;;-6.55;76.39;102963.75;5055134;28;20224;-72
2024/01/09 02:37:20;;;;;;;10.30;6.73;;;;;;;-6.63;76.27;102965.47;5055282;28;20708;-72
2024/01/09 02:39:48;;;;;;;10.23;6.73;;;;;;;-6.62;75.89;102962.88;5055165;28;20577;-72
2024/01/09 02:42:17;;;;;;;12.10;7.27;;;;;;;-6.59;76.49;102956.78;5054728;28;20671;-72
2024/01/09 02:44:45;;;;;;;10.73;6.97;;;;;;;-6.52;75.95;102963.75;5055150;28;20289;-72
2024/01/09 02:47:15;;;;;;;9.77;5.80;;;;;;;-6.53;74.54;102959.38;5054789;28;20210;-72
2024/01/09 02:49:44;;;;;;;10.47;6.87;;;;;;;-6.68;76.78;102957.66;5055020;28;20212;-72
2024/01/09 02:52:12;;;;;;;10.73;6.70;;;;;;;-6.53;76.68;102952.44;5054915;28;20230;-72
2024/01/09 02:54:41;;;;;;;10.30;6.57;;;;;;;-6.51;75.62;102952.47;5054607;28;20664;-72
2024/01/09 02:57:10;;;;;;;12.37;6.50;;;;;;;-6.53;75.14;102952.44;5054819;28;20252;-72
2024/01/09 02:59:38;;;;;;;10.90;6.23;;;;;;;-6.54;75.91;102944.66;5054847;28;20305;-72
2024/01/09 03:02:07;;;;;;;10.73;6.20;;;;;;;-6.46;76.39;102948.97;5054422;28;20769;-72
2024/01/09 03:04:37;;;;;;;9.90;6.23;;;;;;;-6.46;76.58;102953.31;5054466;28;20664;-72
2024/01/09 03:07:06;;;;;;;10.30;6.90;;;;;;;-6.51;75.79;102955.06;5054406;28;20747;-72
2024/01/09 03:09:36;;;;;;;10.97;6.57;;;;;;;-6.52;75.89;102946.38;5054681;28;20202;-72
2024/01/09 03:12:07;;;;;;;10.63;6.73;;;;;;;-6.50;75.01;102948.97;5054571;28;20230;-72
2024/01/09 03:14:38;;;;;;;13.83;6.83;;;;;;;-6.52;76.64;102948.09;5053900;28;20225;-72
2024/01/09 03:17:06;;;;;;;11.27;6.77;;;;;;;-6.62;74.69;102951.56;5054527;28;20187;-72
2024/01/09 03:19:36;;;;;;;10.70;6.60;;;;;;;-6.74;75.38;102950.69;5054501;28;20214;-72
2024/01/09 03:22:05;;;;;;;11.57;6.93;;;;;;;-6.70;75.27;102951.56;5054381;28;20313;-72
2024/01/09 03:24:34;;;;;;;11.37;6.57;;;;;;;-6.58;75.94;102961.13;5054007;28;20317;-72
2024/01/09 03:27:02;;;;;;;10.63;6.83;;;;;;;-6.70;74.18;102949.81;5054333;28;20212;-72
2024/01/09 03:29:30;;;;;;;10.13;6.67;;;;;;;-6.67;75.97;102954.16;5054285;28;20237;-72
2024/01/09 03:31:59;;;;;;;11.17;6.13;;;;;;;-6.82;75.44;102949.81;5054379;28;20226;-72
2024/01/09 03:34:28;;;;;;;11.37;6.80;;;;;;;-6.83;76.98;102950.69;5053904;28;20206;-72
2024/01/09 03:36:58;;;;;;;9.40;6.13;;;;;;;-6.87;76.10;102954.13;5054206;28;20260;-72
2024/01/09 03:39:26;;;;;;;13.53;7.03;;;;;;;-6.75;77.09;102951.56;5054116;28;20213;-72
2024/01/09 03:41:55;;;;;;;11.53;5.73;;;;;;;-6.68;76.65;102960.25;5054245;28;20232;-72
2024/01/09 03:44:23;;;;;;;10.57;6.00;;;;;;;-6.89;76.40;102957.59;5053930;28;20226;-72
2024/01/09 03:46:52;;;;;;;11.33;6.10;;;;;;;-6.77;76.01;102953.28;5053940;28;20289;-72
2024/01/09 03:49:20;;;;;;;13.23;7.10;;;;;;;-6.82;75.96;102960.22;5053978;28;20216;-72
2024/01/09 03:51:49;;;;;;;11.33;6.63;;;;;;;-6.77;76.93;102962.81;5054119;28;20202;-72
2024/01/09 03:54:19;;;;;;;12.33;6.63;;;;;;;-6.78;75.92;102956.75;5054129;28;20209;-72
2024/01/09 03:56:47;;;;;;;12.43;6.87;;;;;;;-6.85;75.67;102955.00;5053860;28;20208;-72
2024/01/09 03:59:16;;;;;;;11.37;6.83;;;;;;;-7.01;76.58;102958.44;5054052;28;20602;-72
2024/01/09 04:01:44;;;;;;;11.13;7.07;;;;;;;-6.87;77.11;102948.91;5053665;28;20209;-72
2024/01/09 04:04:13;;;;;;;11.23;6.37;;;;;;;-6.85;75.65;102949.78;5053609;28;20236;-72
2024/01/09 04:06:44;;;;;;;10.10;6.37;;;;;;;-6.86;75.97;102947.19;5053672;28;20244;-72
2024/01/09 04:09:13;;;;;;;9.50;6.40;;;;;;;-6.83;76.72;102942.00;5053831;28;20241;-72
2024/01/09 04:11:47;;;;;;;12.03;6.70;;;;;;;-6.78;76.30;102937.66;5053521;28;20574;-72
2024/01/09 04:14:15;;;;;;;11.67;6.43;;;;;;;-6.87;77.63;102938.50;5053638;28;20236;-72
2024/01/09 04:16:47;;;;;;;12.27;6.77;;;;;;;-7.00;77.34;102936.75;5053505;28;20297;-72
2024/01/09 04:19:16;;;;;;;10.43;6.30;;;;;;;-7.10;76.87;102934.97;5053502;28;20206;-72
2024/01/09 04:21:44;;;;;;;10.10;6.50;;;;;;;-7.11;77.04;102932.34;5053415;28;20224;-72
2024/01/09 04:24:13;;;;;;;12.70;7.03;;;;;;;-7.20;77.99;102922.81;5053942;28;20234;-72
2024/01/09 04:26:41;;;;;;;9.83;6.63;;;;;;;-7.15;79.04;102934.09;5053349;28;20326;-72
2024/01/09 04:29:11;;;;;;;11.37;6.77;;;;;;;-7.15;78.54;102928.88;5053597;28;20206;-72
2024/01/09 04:31:40;;;;;;;11.77;6.87;;;;;;;-7.35;78.33;102934.03;5053254;28;20210;-72
2024/01/09 04:34:08;;;;;;;10.20;6.47;;;;;;;-7.36;78.93;102931.41;5053063;28;20309;-72
2024/01/09 04:36:37;;;;;;;13.30;6.60;;;;;;;-7.37;77.87;102930.56;5053429;28;20281;-72
2024/01/09 04:39:06;;;;;;;11.90;7.00;;;;;;;-7.48;79.60;102942.63;5053320;28;20229;-72
2024/01/09 04:41:34;;;;;;;12.07;6.37;;;;;;;-7.39;79.28;102939.19;5053264;28;20248;-72
2024/01/09 04:44:03;;;;;;;12.23;6.60;;;;;;;-7.36;80.24;102928.78;5053159;28;20229;-72
2024/01/09 04:46:33;;;;;;;10.17;6.30;;;;;;;-7.42;78.85;102928.78;5053265;28;20615;-72
2024/01/09 04:49:03;;;;;;;12.33;6.87;;;;;;;-7.42;79.13;102931.38;5053222;28;20213;-72
2024/01/09 04:51:32;;;;;;;13.23;6.43;;;;;;;-7.36;78.82;102924.47;5053250;28;20252;-72
2024/01/09 04:54:01;;;;;;;12.57;7.20;;;;;;;-7.35;79.35;102931.41;5053184;28;20271;-72
2024/01/09 04:56:29;;;;;;;13.37;7.17;;;;;;;-7.40;79.12;102920.13;5053211;28;20261;-72
2024/01/09 04:58:58;;;;;;;11.13;7.13;;;;;;;-7.37;80.58;102921.88;5053167;28;20202;-72
2024/01/09 05:01:27;;;;;;;9.20;6.47;;;;;;;-7.31;79.40;102932.31;5053118;28;20206;-72
2024/01/09 05:03:57;;;;;;;12.97;6.93;;;;;;;-7.27;80.33;102921.03;5052943;28;20234;-72
2024/01/09 05:06:25;;;;;;;11.60;7.30;;;;;;;-7.23;79.70;102926.28;5053357;28;20205;-72
2024/01/09 05:08:54;;;;;;;12.23;6.60;;;;;;;-7.21;79.73;102934.06;5053059;28;20213;-72
2024/01/09 05:11:23;;;;;;;9.70;6.20;;;;;;;-7.16;78.72;102927.16;5052944;28;20576;-72
2024/01/09 05:13:51;;;;;;;11.53;7.07;;;;;;;-7.23;78.66;102930.59;5052942;28;20363;-72
2024/01/09 05:16:20;;;;;;;12.33;6.90;;;;;;;-7.30;78.29;102945.34;5052993;28;20232;-72
2024/01/09 05:18:48;;;;;;;11.80;6.30;;;;;;;-7.34;78.58;102942.69;5052938;28;20207;-72
2024/01/09 05:21:18;;;;;;;13.10;7.07;;;;;;;-7.41;78.42;102943.53;5052630;28;20584;-72
2024/01/09 05:23:47;;;;;;;11.20;6.77;;;;;;;-7.28;79.16;102942.72;5052766;28;20325;-72
2024/01/09 05:26:16;;;;;;;18.60;9.90;;;;;;;-7.29;80.09;102933.16;5052886;28;20210;-72
2024/01/09 05:28:47;;;;;;;15.20;7.87;;;;;;;-7.21;78.82;102941.88;5052573;28;20584;-72
2024/01/09 05:31:16;;;;;;;10.60;6.60;;;;;;;-7.15;79.53;102934.09;5052525;28;20701;-72
2024/01/09 05:33:44;;;;;;;11.17;7.20;;;;;;;-7.09;78.82;102934.13;5052538;28;20588;-72
2024/01/09 05:36:13;;;;;;;10.30;6.43;;;;;;;-7.09;78.89;102934.13;5052824;28;20203;-72
2024/01/09 05:38:43;;;;;;;11.23;6.83;;;;;;;-7.14;78.88;102933.22;5055885;28;20206;-73
2024/01/09 05:41:20;;;;;;;10.83;6.20;;;;;;;-7.05;79.08;102945.41;5056370;28;20284;-72
2024/01/09 05:43:48;;;;;;;10.93;6.20;;;;;;;-7.17;78.35;102951.44;5056208;28;20222;-72
2024/01/09 05:46:17;;;;;;;10.57;5.97;;;;;;;-7.11;79.06;102945.38;5056278;28;20292;-72
2024/01/09 05:48:45;;;;;;;13.37;7.77;;;;;;;-7.25;78.49;102942.72;5056215;28;20296;-72
2024/01/09 05:51:14;;;;;;;11.17;6.90;;;;;;;-7.34;79.75;102942.69;5055849;28;20679;-72
2024/01/09 05:53:47;;;;;;;12.60;6.80;;;;;;;-7.30;79.77;102945.34;5056053;28;20226;-72
2024/01/09 05:56:18;;;;;;;12.97;6.60;;;;;;;-7.39;80.46;102950.47;5055901;28;20614;-72
2024/01/09 05:58:47;;;;;;;12.07;6.57;;;;;;;-7.29;79.68;102953.97;5056072;28;20202;-72
2024/01/09 06:01:16;;;;;;;12.20;7.07;;;;;;;-7.34;79.74;102953.97;5055998;28;20301;-72
2024/01/09 06:03:45;;;;;;;12.97;6.77;;;;;;;-7.31;80.20;102960.91;5055860;28;20222;-72
2024/01/09 06:06:13;;;;;;;13.53;6.87;;;;;;;-7.36;78.85;102960.03;5055790;28;20233;-72
2024/01/09 06:08:44;;;;;;;12.07;6.90;;;;;;;-7.38;80.27;102956.56;5055922;28;20229;-72
2024/01/09 06:11:12;;;;;;;10.93;6.27;;;;;;;-7.43;80.65;102960.88;5055808;28;20281;-72
2024/01/09 06:13:41;;;;;;;14.00;6.90;;;;;;;-7.62;80.67;102948.63;5055360;28;20233;-72
2024/01/09 06:16:09;;;;;;;11.93;7.60;;;;;;;-7.68;80.73;102956.41;5055719;28;20275;-72
2024/01/09 06:18:38;;;;;;;10.37;6.50;;;;;;;-7.60;82.58;102955.56;5055691;28;20206;-72
2024/01/09 06:21:06;;;;;;;11.93;6.23;;;;;;;-7.55;82.13;102953.88;5055624;28;20209;-72
2024/01/09 06:23:35;;;;;;;12.10;6.77;;;;;;;-7.64;81.38;102947.75;5055203;28;20719;-72
2024/01/09 06:26:05;;;;;;;13.13;7.23;;;;;;;-7.80;82.63;102950.25;5055705;28;20226;-72
2024/01/09 06:28:35;;;;;;;10.80;6.93;;;;;;;-7.74;82.24;102947.69;5055482;28;20202;-72
2024/01/09 06:31:03;;;;;;;12.93;6.20;;;;;;;-7.70;83.31;102949.44;5055459;28;20210;-72
2024/01/09 06:33:32;;;;;;;13.30;6.43;;;;;;;-7.79;83.00;102953.75;5055559;28;20233;-72
2024/01/09 06:36:01;;;;;;;12.20;6.63;;;;;;;-7.63;83.96;102954.69;5054960;28;20580;-72
2024/01/09 06:38:30;;;;;;;11.97;6.97;;;;;;;-7.67;83.92;102956.41;5055299;28;20206;-72
2024/01/09 06:41:00;;;;;;;13.03;6.70;;;;;;;-7.67;82.48;102958.16;5054847;28;20606;-72
2024/01/09 06:43:29;;;;;;;12.73;7.23;;;;;;;-7.75;83.63;102951.19;5055065;28;20254;-72
2024/01/09 06:45:58;;;;;;;17.30;6.90;;;;;;;-7.76;83.24;102952.03;5054968;28;20258;-72
2024/01/09 06:48:26;;;;;;;11.77;6.60;;;;;;;-7.76;82.09;102959.81;5054206;28;20289;-72
2024/01/09 06:50:55;;;;;;;11.90;7.00;;;;;;;-7.79;83.46;102954.63;5054968;28;20672;-72
2024/01/09 06:53:24;;;;;;;10.97;6.53;;;;;;;-7.74;83.20;102947.69;5055017;28;20241;-72
2024/01/09 06:55:52;;;;;;;11.20;6.70;;;;;;;-7.71;82.66;102957.25;5054983;28;20256;-72
2024/01/09 06:58:21;;;;;;;10.60;6.30;;;;;;;-7.67;83.07;102952.94;5054935;28;20210;-72
2024/01/09 07:00:51;;;;;;;12.93;7.30;;;;;;;-7.87;83.21;102951.09;5054585;28;20206;-72
2024/01/09 07:03:19;;;;;;;12.57;6.80;;;;;;;-7.73;83.63;102957.25;5054769;28;20275;-72
2024/01/09 07:05:48;;;;;;;9.83;6.23;;;;;;;-7.65;84.17;102966.81;5054731;28;20230;-72
2024/01/09 07:08:17;;;;;;;12.33;6.90;;;;;;;-7.58;83.85;102968.59;5054717;28;20202;-72
2024/01/09 07:10:45;;;;;;;13.80;6.93;;;;;;;-7.59;81.76;102961.66;5055075;28;20263;-72
2024/01/09 07:13:14;;;;;;;12.97;7.47;;;;;;;-7.70;83.14;102965.06;5055144;28;20317;-72
2024/01/09 07:15:42;;;;;;;15.17;6.97;;;;;;;-7.72;83.91;102961.59;5054520;28;20742;-72
2024/01/09 07:18:12;;;;;;;14.83;7.10;;;;;;;-7.84;83.23;102966.69;5054601;28;20224;-72
2024/01/09 07:20:42;;;;;;;11.70;6.90;;;;;;;-7.79;83.58;102961.53;5054274;28;20209;-72
2024/01/09 07:23:10;;;;;;;13.10;7.03;;;;;;;-7.88;82.93;102961.50;5054388;28;20230;-72
2024/01/09 07:25:47;;;;;;;11.27;6.87;;;;;;;-7.81;83.20;102964.13;5054350;28;20300;-72
2024/01/09 07:28:16;;;;;;;12.77;6.53;;;;;;;-7.84;82.31;102971.91;5054389;28;20233;-72
2024/01/09 07:30:45;;;;;;;10.70;6.83;;;;;;;-7.85;84.30;102969.31;5054284;28;20630;-72
2024/01/09 07:33:16;;;;;;;10.37;6.63;;;;;;;-7.88;83.93;102970.16;5054210;28;20324;-72
2024/01/09 07:35:45;;;;;;;10.40;6.83;;;;;;;-7.84;83.64;102971.06;5053834;28;20237;-72
2024/01/09 07:38:14;;;;;;;11.47;6.43;;;;;;;-7.79;84.63;102975.41;5054139;28;20289;-72
2024/01/09 07:40:42;;;;;;;11.67;7.20;;;;;;;-7.86;83.00;102978.84;5054121;28;20213;-72
2024/01/09 07:43:11;;;;;;;9.83;6.63;;;;;;;-7.78;83.85;102987.56;5054031;28;20264;-72
2024/01/09 07:45:44;;;;;;;13.90;7.03;;;;;;;-7.78;84.05;102984.97;5053948;28;20230;-72
2024/01/09 07:48:20;;;;;;;13.27;6.47;;;;;;;-7.73;84.13;102990.16;5054023;28;20268;-72
2024/01/09 07:50:49;;;;;;;12.07;6.80;;;;;;;-7.71;83.75;102991.94;5053955;28;20187;-72
2024/01/09 07:53:18;;;;;;;13.73;7.17;;;;;;;-7.66;84.26;102996.28;5053873;28;20230;-72
2024/01/09 07:55:46;;;;;;;13.07;6.77;;;;;;;-7.73;83.01;102993.66;5053904;28;20237;-72
2024/01/09 07:58:15;;;;;;;11.10;6.83;;;;;;;-7.90;83.24;102992.66;5053781;28;20236;-72
2024/01/09 08:00:43;;;;;;;13.60;7.67;;;;;;;-7.79;84.78;102993.63;5053500;28;20206;-72
2024/01/09 08:03:13;;;;;;;12.63;7.23;;;;;;;-7.79;83.12;102998.81;5053349;28;20738;-72
2024/01/09 08:05:48;;;;;;;13.47;6.70;;;;;;;-7.71;83.51;102999.75;5053654;28;20205;-72
2024/01/09 08:08:17;;;;;;;11.83;6.67;;;;;;;-7.73;82.63;102996.25;5053661;28;20209;-72
2024/01/09 08:10:45;;;;;;;11.87;6.80;;;;;;;-7.72;83.64;102995.41;5053248;28;20651;-72
2024/01/09 08:13:14;;;;;;;13.10;6.90;;;;;;;-7.75;82.40;102997.97;5053522;28;20268;-72
2024/01/09 08:15:42;;;;;;;11.90;6.90;;;;;;;-7.83;83.41;102989.25;5053536;28;20284;-71
2024/01/09 08:18:11;;;;;;;11.87;7.43;;;;;;;-7.89;84.07;102991.81;5053572;28;20245;-72
2024/01/09 08:20:43;;;;;;;10.77;7.33;;;;;;;-7.79;84.58;102993.63;5053611;28;20207;-67
2024/01/09 08:23:13;;;;;;;12.13;7.03;;;;;;;-7.84;84.11;102984.06;5053520;28;20233;-67
2024/01/09 08:25:42;;;;;;;13.77;8.00;;;;;;;-7.82;84.71;102980.59;5053381;28;20229;-67
2024/01/09 08:28:11;;;;;;;12.77;6.83;;;;;;;-7.89;84.49;102989.22;5053141;28;20683;-67
2024/01/09 08:30:39;;;;;;;11.60;7.10;;;;;;;-7.81;84.55;102997.06;5053405;28;20285;-67
2024/01/09 08:33:08;;;;;;;13.37;7.13;;;;;;;-7.76;85.06;102998.84;5052946;28;20613;-66
2024/01/09 08:35:36;;;;;;;14.97;7.60;;;;;;;-7.95;85.70;102994.38;5053011;28;20214;-67
2024/01/09 08:38:05;;;;;;;13.07;7.27;;;;;;;-8.01;86.78;102994.31;5053338;28;20205;-67
2024/01/09 08:40:35;;;;;;;16.10;8.00;;;;;;;-7.88;88.28;102990.09;5053438;28;20220;-67
2024/01/09 08:43:06;;;;;;;12.13;7.23;;;;;;;-7.78;86.71;103003.16;5053213;28;20291;-67
2024/01/09 08:45:36;;;;;;;13.63;8.53;;;;;;;-7.74;87.19;102989.28;5052822;28;20675;-67
2024/01/09 08:48:05;;;;;;;13.73;7.23;;;;;;;-7.85;86.64;102996.19;5053275;28;20289;-67
2024/01/09 08:50:34;;;;;;;14.30;8.10;;;;;;;-7.82;87.43;103001.41;5053312;28;20217;-67
2024/01/09 08:53:03;;;;;;;11.90;7.90;;;;;;;-7.91;86.64;103010.88;5053148;28;20226;-67
2024/01/09 08:55:31;;;;;;;13.40;8.57;;;;;;;-7.81;86.97;103004.88;5053426;28;20207;-67
2024/01/09 08:58:01;;;;;;;16.43;8.40;;;;;;;-7.75;86.85;103003.19;5052881;28;20698;-67
2024/01/09 09:00:30;;;;;;;14.10;8.90;;;;;;;-7.69;86.56;103002.34;5053161;28;20206;-67
2024/01/09 09:02:59;;;;;;;14.43;8.50;;;;;;;-7.68;87.16;103016.22;5052730;28;20226;-67
2024/01/09 09:05:28;;;;;;;13.00;8.13;;;;;;;-7.77;86.84;103010.09;5052986;28;20285;-67
2024/01/09 09:07:57;;;;;;;13.93;8.50;;;;;;;-7.79;86.81;103011.81;5053015;28;20259;-67
2024/01/09 09:10:25;;;;;;;14.80;9.13;;;;;;;-7.68;86.76;103008.41;5053092;28;20296;-67
2024/01/09 09:12:53;;;;;;;12.73;7.93;;;;;;;-7.78;86.85;103017.88;5055004;28;20222;-67
2024/01/09 09:15:23;;;;;;;14.13;8.30;;;;;;;-7.73;86.27;103011.84;5056535;28;20575;-67
2024/01/09 09:17:52;;;;;;;14.50;8.37;;;;;;;-7.76;85.79;103017.03;5056772;28;20293;-67
2024/01/09 09:20:20;;;;;;;16.23;8.47;;;;;;;-7.79;86.33;103017.00;5056498;28;20210;-67
2024/01/09 09:22:49;;;;;;;14.97;8.53;;;;;;;-7.73;87.82;103014.44;5056669;28;20230;-67
2024/01/09 09:25:17;;;;;;;15.83;8.77;;;;;;;-7.66;87.44;103017.09;5056682;28;20289;-67
2024/01/09 09:27:46;;;;;;;14.43;7.97;;;;;;;-7.63;86.40;103019.69;5056575;28;20634;-67
2024/01/09 09:30:15;;;;;;;15.80;8.53;;;;;;;-7.63;86.20;103011.91;5056829;28;20301;-67
2024/01/09 09:32:45;;;;;;;16.07;8.23;;;;;;;-7.56;86.90;103013.69;5056417;28;20226;-66
2024/01/09 09:35:14;;;;;;;19.87;8.90;;;;;;;-7.55;86.82;103020.63;5056000;28;20561;-66
2024/01/09 09:37:45;;;;;;;14.63;8.50;;;;;;;-7.55;85.00;103018.03;5056393;28;20572;-66
2024/01/09 09:40:14;;;;;;;13.40;8.80;;;;;;;-7.49;86.33;103020.66;5056467;28;20214;-67
2024/01/09 09:42:47;;;;;;;17.33;9.70;;;;;;;-7.49;86.19;103018.06;5056645;28;20232;-67
2024/01/09 09:45:18;;;;;;;14.63;8.60;;;;;;;-7.50;86.20;103005.94;5056378;28;20243;-67
2024/01/09 09:47:50;;;;;;;17.53;9.03;;;;;;;-7.45;86.63;103001.63;5056185;28;20261;-67
2024/01/09 09:50:20;;;;;;;17.67;9.23;;;;;;;-7.47;86.86;103000.75;5056486;28;20201;-67
2024/01/09 09:52:49;;;;;;;17.97;9.60;;;;;;;-7.47;86.06;102992.94;5055807;28;20770;-67
2024/01/09 09:55:18;;;;;;;21.27;9.23;;;;;;;-7.43;86.21;102992.09;5056046;28;20651;-67
2024/01/09 09:57:47;;;;;;;17.17;9.07;;;;;;;-7.43;86.26;102997.31;5056092;28;20202;-67
2024/01/09 10:00:16;;;;;;;14.90;8.63;;;;;;;-7.47;85.16;102988.63;5056006;28;20238;-67
2024/01/09 10:02:50;;;;;;;16.23;8.80;;;;;;;-7.44;85.13;103003.38;5055911;28;20291;-67
2024/01/09 10:05:20;;;;;;;16.93;9.23;;;;;;;-7.36;86.04;102997.31;5055957;28;20217;-67
2024/01/09 10:07:53;;;;;;;18.30;9.23;;;;;;;-7.42;85.56;102991.22;5055801;28;20225;-67
2024/01/09 10:10:22;;;;;;;17.43;9.07;;;;;;;-7.44;86.78;102987.75;5055539;28;20668;-67
2024/01/09 10:12:53;;;;;;;16.17;8.90;;;;;;;-7.45;87.27;102991.22;5055434;28;20316;-68
2024/01/09 10:15:21;;;;;;;19.67;9.70;;;;;;;-7.50;86.86;102995.53;5055628;28;20222;-68
2024/01/09 10:17:53;;;;;;;19.60;8.97;;;;;;;-7.43;87.56;102994.72;5055657;28;20244;-68
2024/01/09 10:20:22;;;;;;;17.40;9.07;;;;;;;-7.44;86.67;102998.16;5055695;28;20285;-68
2024/01/09 10:22:54;;;;;;;17.40;9.10;;;;;;;-7.50;86.54;102992.94;5055390;28;20226;-68
2024/01/09 10:25:23;;;;;;;17.13;9.03;;;;;;;-7.49;86.92;102992.03;5055513;28;20220;-68
2024/01/09 10:27:52;;;;;;;17.67;9.57;;;;;;;-7.48;87.44;102986.88;5055404;28;20230;-68
2024/01/09 10:30:21;;;;;;;19.47;9.73;;;;;;;-7.47;85.83;102986.00;5055528;28;20296;-68
2024/01/09 10:32:54;;;;;;;19.47;8.60;;;;;;;-7.47;85.77;102987.75;5055366;28;20222;-68
2024/01/09 10:35:22;;;;;;;21.07;8.03;;;;;;;-7.40;86.98;102979.97;5055017;28;20210;-68
2024/01/09 10:37:55;;;;;;;15.87;9.07;;;;;;;-7.45;85.85;102986.00;5055346;28;20202;-66
2024/01/09 10:40:26;;;;;;;18.20;8.90;;;;;;;-7.40;85.71;102984.31;5055383;28;20217;-67
2024/01/09 10:42:55;;;;;;;14.77;8.50;;;;;;;-7.40;85.38;102972.19;5055219;28;20316;-67
2024/01/09 10:45:24;;;;;;;13.87;8.60;;;;;;;-7.35;85.90;102973.06;5054907;28;20717;-67
2024/01/09 10:47:55;;;;;;;17.00;8.80;;;;;;;-7.27;85.81;102970.50;5055887;28;20261;-67
2024/01/09 10:50:24;;;;;;;18.17;9.10;;;;;;;-7.20;86.47;102959.25;5055142;28;20259;-67
2024/01/09 10:52:53;;;;;;;21.40;9.50;;;;;;;-7.19;85.65;102968.75;5055226;28;20229;-67
2024/01/09 10:55:23;;;;;;;17.93;8.53;;;;;;;-7.22;85.13;102973.97;5055011;28;20212;-67
2024/01/09 10:57:52;;;;;;;15.13;8.37;;;;;;;-7.18;84.56;102968.78;5054978;28;20245;-67
2024/01/09 11:00:22;;;;;;;19.77;9.97;;;;;;;-7.14;85.60;102967.06;5054878;28;20216;-71
2024/01/09 11:02:50;;;;;;;15.73;8.50;;;;;;;-7.12;84.79;102964.47;5054807;28;20234;-71
2024/01/09 11:05:20;;;;;;;14.47;8.53;;;;;;;-7.11;83.78;102961.88;5054825;28;20240;-71
2024/01/09 11:07:52;;;;;;;16.77;8.37;;;;;;;-7.12;84.75;102970.53;5054372;28;20795;-71
2024/01/09 11:10:22;;;;;;;15.97;8.57;;;;;;;-7.10;84.26;102968.81;5054770;28;20187;-71
2024/01/09 11:12:53;;;;;;;15.63;8.03;;;;;;;-7.07;85.32;102963.63;5054840;28;20309;-72
2024/01/09 11:15:25;;;;;;;17.67;8.87;;;;;;;-7.02;84.68;102969.69;5054388;28;20706;-71
2024/01/09 11:18:01;;;;;;;14.67;8.37;;;;;;;-6.96;85.59;102956.72;5054269;28;20574;-71
2024/01/09 11:20:31;;;;;;;14.37;8.20;;;;;;;-6.94;84.48;102954.97;5055422;28;20194;-71
2024/01/09 11:23:00;;;;;;;15.43;8.37;;;;;;;-6.91;82.35;102946.28;5054383;28;20317;-72
2024/01/09 11:25:29;;;;;;;15.97;8.70;;;;;;;-6.88;82.19;102938.50;5054391;28;20259;-72